sensor_id;sensor_type;location;lat;lon;timestamp;P1;durP1;ratioP1;P2;durP2;ratioP2
48052;SDS011;33824;51.600;5.718;2023-04-12T00:00:30;10.90;;;3.00;;
48052;SDS011;33824;51.600;5.718;2023-04-12T00:03:12;5.57;;;1.30;;
48052;SDS011;33824;51.600;5.718;2023-04-12T00:05:38;11.23;;;1.10;;
48052;SDS011;33824;51.600;5.718;2023-04-12T00:08:03;6.45;;;1.13;;
48052;SDS011;33824;51.600;5.718;2023-04-12T00:10:30;4.82;;;1.02;;
48052;SDS011;33824;51.600;5.718;2023-04-12T00:12:56;3.55;;;0.75;;
48052;SDS011;33824;51.600;5.718;2023-04-12T00:15:23;4.78;;;0.93;;
48052;SDS011;33824;51.600;5.718;2023-04-12T00:17:49;5.57;;;1.17;;
48052;SDS011;33824;51.600;5.718;2023-04-12T00:20:14;6.38;;;1.20;;
48052;SDS011;33824;51.600;5.718;2023-04-12T00:22:41;6.60;;;1.13;;
48052;SDS011;33824;51.600;5.718;2023-04-12T00:25:07;4.10;;;0.90;;
48052;SDS011;33824;51.600;5.718;2023-04-12T00:27:34;5.78;;;1.17;;
48052;SDS011;33824;51.600;5.718;2023-04-12T00:29:59;9.38;;;1.00;;
48052;SDS011;33824;51.600;5.718;2023-04-12T00:32:26;8.20;;;1.92;;
48052;SDS011;33824;51.600;5.718;2023-04-12T00:34:51;6.78;;;1.13;;
48052;SDS011;33824;51.600;5.718;2023-04-12T00:37:17;5.85;;;1.00;;
48052;SDS011;33824;51.600;5.718;2023-04-12T00:39:43;4.85;;;1.42;;
48052;SDS011;33824;51.600;5.718;2023-04-12T00:42:08;4.10;;;1.05;;
48052;SDS011;33824;51.600;5.718;2023-04-12T00:44:34;5.95;;;1.50;;
48052;SDS011;33824;51.600;5.718;2023-04-12T00:47:03;3.55;;;0.80;;
48052;SDS011;33824;51.600;5.718;2023-04-12T00:49:29;3.42;;;1.67;;
48052;SDS011;33824;51.600;5.718;2023-04-12T00:51:57;5.32;;;1.17;;
48052;SDS011;33824;51.600;5.718;2023-04-12T00:54:27;1.58;;;0.50;;
48052;SDS011;33824;51.600;5.718;2023-04-12T00:56:54;3.05;;;0.90;;
48052;SDS011;33824;51.600;5.718;2023-04-12T00:59:21;2.80;;;1.08;;
48052;SDS011;33824;51.600;5.718;2023-04-12T01:01:47;1.80;;;0.85;;
48052;SDS011;33824;51.600;5.718;2023-04-12T01:04:13;5.00;;;0.90;;
48052;SDS011;33824;51.600;5.718;2023-04-12T01:14:35;5.97;;;1.20;;
48052;SDS011;33824;51.600;5.718;2023-04-12T01:17:24;3.42;;;0.98;;
48052;SDS011;33824;51.600;5.718;2023-04-12T01:19:55;8.90;;;1.70;;
48052;SDS011;33824;51.600;5.718;2023-04-12T01:22:28;5.57;;;1.38;;
48052;SDS011;33824;51.600;5.718;2023-04-12T01:27:41;8.40;;;1.40;;
48052;SDS011;33824;51.600;5.718;2023-04-12T01:30:11;5.88;;;1.15;;
48052;SDS011;33824;51.600;5.718;2023-04-12T01:32:42;9.05;;;1.35;;
48052;SDS011;33824;51.600;5.718;2023-04-12T01:35:10;6.68;;;1.13;;
48052;SDS011;33824;51.600;5.718;2023-04-12T01:37:38;7.13;;;2.42;;
48052;SDS011;33824;51.600;5.718;2023-04-12T01:40:04;5.03;;;1.42;;
48052;SDS011;33824;51.600;5.718;2023-04-12T01:42:31;4.63;;;1.58;;
48052;SDS011;33824;51.600;5.718;2023-04-12T01:44:57;5.10;;;0.95;;
48052;SDS011;33824;51.600;5.718;2023-04-12T01:47:23;5.40;;;1.17;;
48052;SDS011;33824;51.600;5.718;2023-04-12T01:49:54;6.43;;;0.98;;
48052;SDS011;33824;51.600;5.718;2023-04-12T01:52:30;10.85;;;1.40;;
48052;SDS011;33824;51.600;5.718;2023-04-12T01:55:01;4.72;;;1.25;;
48052;SDS011;33824;51.600;5.718;2023-04-12T01:57:30;3.78;;;0.75;;
48052;SDS011;33824;51.600;5.718;2023-04-12T01:59:57;12.07;;;1.40;;
48052;SDS011;33824;51.600;5.718;2023-04-12T02:02:24;5.13;;;1.15;;
48052;SDS011;33824;51.600;5.718;2023-04-12T02:04:50;3.78;;;0.95;;
48052;SDS011;33824;51.600;5.718;2023-04-12T02:07:16;5.35;;;0.95;;
48052;SDS011;33824;51.600;5.718;2023-04-12T02:09:42;9.38;;;1.65;;
48052;SDS011;33824;51.600;5.718;2023-04-12T02:12:08;5.60;;;0.95;;
48052;SDS011;33824;51.600;5.718;2023-04-12T02:14:34;7.82;;;0.80;;
48052;SDS011;33824;51.600;5.718;2023-04-12T02:17:00;2.53;;;0.88;;
48052;SDS011;33824;51.600;5.718;2023-04-12T02:19:28;4.20;;;0.93;;
48052;SDS011;33824;51.600;5.718;2023-04-12T02:21:54;6.85;;;0.98;;
48052;SDS011;33824;51.600;5.718;2023-04-12T02:24:20;3.53;;;1.00;;
48052;SDS011;33824;51.600;5.718;2023-04-12T02:26:45;4.97;;;0.90;;
48052;SDS011;33824;51.600;5.718;2023-04-12T02:29:13;5.63;;;1.15;;
48052;SDS011;33824;51.600;5.718;2023-04-12T02:31:40;1.55;;;0.60;;
48052;SDS011;33824;51.600;5.718;2023-04-12T02:34:05;1.55;;;0.73;;
48052;SDS011;33824;51.600;5.718;2023-04-12T02:36:31;5.00;;;0.85;;
48052;SDS011;33824;51.600;5.718;2023-04-12T02:38:57;7.63;;;0.93;;
48052;SDS011;33824;51.600;5.718;2023-04-12T02:41:23;3.47;;;1.13;;
48052;SDS011;33824;51.600;5.718;2023-04-12T02:43:49;3.38;;;0.93;;
48052;SDS011;33824;51.600;5.718;2023-04-12T02:46:17;6.45;;;0.90;;
48052;SDS011;33824;51.600;5.718;2023-04-12T02:48:45;5.05;;;0.90;;
48052;SDS011;33824;51.600;5.718;2023-04-12T02:51:12;5.15;;;0.80;;
48052;SDS011;33824;51.600;5.718;2023-04-12T02:53:37;5.90;;;0.85;;
48052;SDS011;33824;51.600;5.718;2023-04-12T02:56:03;3.55;;;1.00;;
48052;SDS011;33824;51.600;5.718;2023-04-12T02:58:30;3.20;;;0.70;;
48052;SDS011;33824;51.600;5.718;2023-04-12T03:00:58;4.75;;;0.90;;
48052;SDS011;33824;51.600;5.718;2023-04-12T03:03:24;2.67;;;0.70;;
48052;SDS011;33824;51.600;5.718;2023-04-12T03:05:51;2.85;;;0.90;;
48052;SDS011;33824;51.600;5.718;2023-04-12T03:08:17;2.17;;;0.68;;
48052;SDS011;33824;51.600;5.718;2023-04-12T03:10:43;2.72;;;0.77;;
48052;SDS011;33824;51.600;5.718;2023-04-12T03:13:09;2.40;;;0.90;;
48052;SDS011;33824;51.600;5.718;2023-04-12T03:15:35;1.15;;;0.80;;
48052;SDS011;33824;51.600;5.718;2023-04-12T03:18:01;3.85;;;0.93;;
48052;SDS011;33824;51.600;5.718;2023-04-12T03:20:27;3.65;;;0.90;;
48052;SDS011;33824;51.600;5.718;2023-04-12T03:22:52;7.63;;;0.77;;
48052;SDS011;33824;51.600;5.718;2023-04-12T03:25:18;4.05;;;0.80;;
48052;SDS011;33824;51.600;5.718;2023-04-12T03:27:44;3.92;;;0.77;;
48052;SDS011;33824;51.600;5.718;2023-04-12T03:30:10;7.10;;;0.88;;
48052;SDS011;33824;51.600;5.718;2023-04-12T03:32:39;3.95;;;0.80;;
48052;SDS011;33824;51.600;5.718;2023-04-12T03:35:08;3.92;;;1.17;;
48052;SDS011;33824;51.600;5.718;2023-04-12T03:37:34;1.77;;;0.60;;
48052;SDS011;33824;51.600;5.718;2023-04-12T03:40:00;2.30;;;0.90;;
48052;SDS011;33824;51.600;5.718;2023-04-12T03:42:27;2.50;;;0.82;;
48052;SDS011;33824;51.600;5.718;2023-04-12T03:44:53;4.78;;;1.00;;
48052;SDS011;33824;51.600;5.718;2023-04-12T03:47:19;5.22;;;0.70;;
48052;SDS011;33824;51.600;5.718;2023-04-12T03:49:45;1.83;;;0.60;;
48052;SDS011;33824;51.600;5.718;2023-04-12T03:52:11;2.60;;;1.15;;
48052;SDS011;33824;51.600;5.718;2023-04-12T03:54:38;5.25;;;1.75;;
48052;SDS011;33824;51.600;5.718;2023-04-12T03:57:03;3.60;;;1.00;;
48052;SDS011;33824;51.600;5.718;2023-04-12T03:59:29;2.25;;;0.70;;
48052;SDS011;33824;51.600;5.718;2023-04-12T04:01:55;3.05;;;0.60;;
48052;SDS011;33824;51.600;5.718;2023-04-12T04:04:22;1.75;;;0.57;;
48052;SDS011;33824;51.600;5.718;2023-04-12T04:06:48;5.55;;;1.13;;
48052;SDS011;33824;51.600;5.718;2023-04-12T04:09:14;10.23;;;0.57;;
48052;SDS011;33824;51.600;5.718;2023-04-12T04:11:39;2.33;;;0.80;;
48052;SDS011;33824;51.600;5.718;2023-04-12T04:14:07;3.05;;;0.77;;
48052;SDS011;33824;51.600;5.718;2023-04-12T04:16:33;2.50;;;0.60;;
48052;SDS011;33824;51.600;5.718;2023-04-12T04:18:59;2.88;;;0.50;;
48052;SDS011;33824;51.600;5.718;2023-04-12T04:21:24;4.68;;;0.70;;
48052;SDS011;33824;51.600;5.718;2023-04-12T04:23:51;1.90;;;0.52;;
48052;SDS011;33824;51.600;5.718;2023-04-12T04:26:16;5.63;;;0.77;;
48052;SDS011;33824;51.600;5.718;2023-04-12T04:28:42;2.95;;;0.80;;
48052;SDS011;33824;51.600;5.718;2023-04-12T04:31:14;3.75;;;0.60;;
48052;SDS011;33824;51.600;5.718;2023-04-12T04:33:41;2.60;;;0.57;;
48052;SDS011;33824;51.600;5.718;2023-04-12T04:36:07;2.95;;;0.82;;
48052;SDS011;33824;51.600;5.718;2023-04-12T04:38:33;4.95;;;0.68;;
48052;SDS011;33824;51.600;5.718;2023-04-12T04:41:00;3.97;;;0.68;;
48052;SDS011;33824;51.600;5.718;2023-04-12T04:43:29;1.00;;;0.50;;
48052;SDS011;33824;51.600;5.718;2023-04-12T04:45:56;1.75;;;0.80;;
48052;SDS011;33824;51.600;5.718;2023-04-12T04:48:22;2.72;;;0.65;;
48052;SDS011;33824;51.600;5.718;2023-04-12T04:50:48;1.95;;;0.60;;
48052;SDS011;33824;51.600;5.718;2023-04-12T04:53:16;1.77;;;0.68;;
48052;SDS011;33824;51.600;5.718;2023-04-12T04:55:43;3.80;;;0.70;;
48052;SDS011;33824;51.600;5.718;2023-04-12T04:58:09;2.92;;;0.57;;
48052;SDS011;33824;51.600;5.718;2023-04-12T05:00:34;4.25;;;0.73;;
48052;SDS011;33824;51.600;5.718;2023-04-12T05:03:00;2.85;;;0.70;;
48052;SDS011;33824;51.600;5.718;2023-04-12T05:05:27;1.85;;;0.60;;
48052;SDS011;33824;51.600;5.718;2023-04-12T05:07:53;3.13;;;0.60;;
48052;SDS011;33824;51.600;5.718;2023-04-12T05:10:20;1.67;;;0.45;;
48052;SDS011;33824;51.600;5.718;2023-04-12T05:12:46;2.50;;;0.45;;
48052;SDS011;33824;51.600;5.718;2023-04-12T05:15:12;3.78;;;0.88;;
48052;SDS011;33824;51.600;5.718;2023-04-12T05:17:38;1.27;;;0.50;;
48052;SDS011;33824;51.600;5.718;2023-04-12T05:20:03;3.10;;;0.60;;
48052;SDS011;33824;51.600;5.718;2023-04-12T05:22:32;2.08;;;0.88;;
48052;SDS011;33824;51.600;5.718;2023-04-12T05:24:58;3.65;;;0.57;;
48052;SDS011;33824;51.600;5.718;2023-04-12T05:27:24;1.75;;;0.63;;
48052;SDS011;33824;51.600;5.718;2023-04-12T05:29:51;1.98;;;0.82;;
48052;SDS011;33824;51.600;5.718;2023-04-12T05:32:18;1.83;;;0.60;;
48052;SDS011;33824;51.600;5.718;2023-04-12T05:34:43;3.55;;;0.80;;
48052;SDS011;33824;51.600;5.718;2023-04-12T05:37:09;1.63;;;0.50;;
48052;SDS011;33824;51.600;5.718;2023-04-12T05:39:35;2.30;;;0.52;;
48052;SDS011;33824;51.600;5.718;2023-04-12T05:42:01;1.05;;;0.43;;
48052;SDS011;33824;51.600;5.718;2023-04-12T05:44:26;2.45;;;0.70;;
48052;SDS011;33824;51.600;5.718;2023-04-12T05:46:52;3.55;;;0.65;;
48052;SDS011;33824;51.600;5.718;2023-04-12T05:49:17;0.65;;;0.40;;
48052;SDS011;33824;51.600;5.718;2023-04-12T05:51:43;3.30;;;0.85;;
48052;SDS011;33824;51.600;5.718;2023-04-12T05:54:09;2.65;;;0.70;;
48052;SDS011;33824;51.600;5.718;2023-04-12T05:56:35;6.22;;;0.75;;
48052;SDS011;33824;51.600;5.718;2023-04-12T05:59:00;2.33;;;1.02;;
48052;SDS011;33824;51.600;5.718;2023-04-12T06:01:27;1.83;;;0.70;;
48052;SDS011;33824;51.600;5.718;2023-04-12T06:03:56;1.33;;;0.60;;
48052;SDS011;33824;51.600;5.718;2023-04-12T06:06:22;4.63;;;0.85;;
48052;SDS011;33824;51.600;5.718;2023-04-12T06:08:48;0.65;;;0.55;;
48052;SDS011;33824;51.600;5.718;2023-04-12T06:11:13;3.30;;;0.68;;
48052;SDS011;33824;51.600;5.718;2023-04-12T06:13:40;3.28;;;0.90;;
48052;SDS011;33824;51.600;5.718;2023-04-12T06:16:06;1.80;;;0.60;;
48052;SDS011;33824;51.600;5.718;2023-04-12T06:18:31;2.55;;;0.70;;
48052;SDS011;33824;51.600;5.718;2023-04-12T06:20:57;3.25;;;0.73;;
48052;SDS011;33824;51.600;5.718;2023-04-12T06:23:23;3.95;;;1.00;;
48052;SDS011;33824;51.600;5.718;2023-04-12T06:25:48;2.30;;;0.82;;
48052;SDS011;33824;51.600;5.718;2023-04-12T06:28:14;3.13;;;0.60;;
48052;SDS011;33824;51.600;5.718;2023-04-12T06:30:41;1.08;;;0.70;;
48052;SDS011;33824;51.600;5.718;2023-04-12T06:33:06;1.10;;;0.55;;
48052;SDS011;33824;51.600;5.718;2023-04-12T06:35:32;1.90;;;0.77;;
48052;SDS011;33824;51.600;5.718;2023-04-12T06:37:58;2.45;;;1.08;;
48052;SDS011;33824;51.600;5.718;2023-04-12T06:40:23;7.00;;;0.90;;
48052;SDS011;33824;51.600;5.718;2023-04-12T06:42:49;2.05;;;0.80;;
48052;SDS011;33824;51.600;5.718;2023-04-12T06:45:15;2.00;;;0.60;;
48052;SDS011;33824;51.600;5.718;2023-04-12T06:47:40;2.05;;;0.88;;
48052;SDS011;33824;51.600;5.718;2023-04-12T06:50:06;2.30;;;0.63;;
48052;SDS011;33824;51.600;5.718;2023-04-12T06:52:32;1.45;;;0.88;;
48052;SDS011;33824;51.600;5.718;2023-04-12T06:54:58;0.80;;;0.70;;
48052;SDS011;33824;51.600;5.718;2023-04-12T06:57:23;1.20;;;0.82;;
48052;SDS011;33824;51.600;5.718;2023-04-12T06:59:49;3.80;;;0.80;;
48052;SDS011;33824;51.600;5.718;2023-04-12T07:02:14;2.00;;;0.70;;
48052;SDS011;33824;51.600;5.718;2023-04-12T07:04:40;3.55;;;0.82;;
48052;SDS011;33824;51.600;5.718;2023-04-12T07:07:06;0.90;;;0.63;;
48052;SDS011;33824;51.600;5.718;2023-04-12T07:09:31;2.22;;;0.80;;
48052;SDS011;33824;51.600;5.718;2023-04-12T07:11:57;3.80;;;1.33;;
48052;SDS011;33824;51.600;5.718;2023-04-12T07:14:24;1.17;;;0.80;;
48052;SDS011;33824;51.600;5.718;2023-04-12T07:16:50;5.25;;;1.10;;
48052;SDS011;33824;51.600;5.718;2023-04-12T07:19:16;2.75;;;0.90;;
48052;SDS011;33824;51.600;5.718;2023-04-12T07:21:41;3.20;;;0.80;;
48052;SDS011;33824;51.600;5.718;2023-04-12T07:24:07;2.88;;;1.00;;
48052;SDS011;33824;51.600;5.718;2023-04-12T07:26:32;3.60;;;1.73;;
48052;SDS011;33824;51.600;5.718;2023-04-12T07:28:58;2.25;;;0.70;;
48052;SDS011;33824;51.600;5.718;2023-04-12T07:31:23;2.25;;;0.93;;
48052;SDS011;33824;51.600;5.718;2023-04-12T07:33:49;3.75;;;1.00;;
48052;SDS011;33824;51.600;5.718;2023-04-12T07:36:15;1.95;;;0.70;;
48052;SDS011;33824;51.600;5.718;2023-04-12T07:38:41;5.22;;;1.00;;
48052;SDS011;33824;51.600;5.718;2023-04-12T07:41:06;2.45;;;0.90;;
48052;SDS011;33824;51.600;5.718;2023-04-12T07:43:32;4.45;;;1.33;;
48052;SDS011;33824;51.600;5.718;2023-04-12T07:45:57;4.78;;;0.93;;
48052;SDS011;33824;51.600;5.718;2023-04-12T07:48:23;4.50;;;1.23;;
48052;SDS011;33824;51.600;5.718;2023-04-12T07:50:49;2.70;;;0.93;;
48052;SDS011;33824;51.600;5.718;2023-04-12T07:53:16;2.22;;;1.15;;
48052;SDS011;33824;51.600;5.718;2023-04-12T07:55:46;8.07;;;1.60;;
48052;SDS011;33824;51.600;5.718;2023-04-12T07:58:12;4.10;;;1.13;;
48052;SDS011;33824;51.600;5.718;2023-04-12T08:00:38;8.77;;;1.30;;
48052;SDS011;33824;51.600;5.718;2023-04-12T08:03:03;4.75;;;1.27;;
48052;SDS011;33824;51.600;5.718;2023-04-12T08:05:29;4.72;;;1.42;;
48052;SDS011;33824;51.600;5.718;2023-04-12T08:07:55;2.92;;;1.02;;
48052;SDS011;33824;51.600;5.718;2023-04-12T08:10:20;9.27;;;1.33;;
48052;SDS011;33824;51.600;5.718;2023-04-12T08:12:46;5.40;;;1.38;;
48052;SDS011;33824;51.600;5.718;2023-04-12T08:15:12;6.68;;;1.20;;
48052;SDS011;33824;51.600;5.718;2023-04-12T08:17:37;13.23;;;1.58;;
48052;SDS011;33824;51.600;5.718;2023-04-12T08:20:03;4.97;;;1.25;;
48052;SDS011;33824;51.600;5.718;2023-04-12T08:22:29;4.43;;;1.42;;
48052;SDS011;33824;51.600;5.718;2023-04-12T08:24:55;6.35;;;1.80;;
48052;SDS011;33824;51.600;5.718;2023-04-12T08:27:20;7.07;;;1.80;;
48052;SDS011;33824;51.600;5.718;2023-04-12T08:29:46;12.65;;;1.50;;
48052;SDS011;33824;51.600;5.718;2023-04-12T08:32:12;6.00;;;2.00;;
48052;SDS011;33824;51.600;5.718;2023-04-12T08:34:37;3.22;;;1.23;;
48052;SDS011;33824;51.600;5.718;2023-04-12T08:37:03;3.38;;;1.27;;
48052;SDS011;33824;51.600;5.718;2023-04-12T08:39:30;7.68;;;1.95;;
48052;SDS011;33824;51.600;5.718;2023-04-12T08:41:56;7.00;;;2.30;;
48052;SDS011;33824;51.600;5.718;2023-04-12T08:44:31;10.02;;;2.10;;
48052;SDS011;33824;51.600;5.718;2023-04-12T08:47:00;7.00;;;1.83;;
48052;SDS011;33824;51.600;5.718;2023-04-12T08:49:27;13.48;;;2.00;;
48052;SDS011;33824;51.600;5.718;2023-04-12T08:51:52;4.25;;;1.67;;
48052;SDS011;33824;51.600;5.718;2023-04-12T08:54:19;6.80;;;1.40;;
48052;SDS011;33824;51.600;5.718;2023-04-12T08:56:44;4.53;;;1.60;;
48052;SDS011;33824;51.600;5.718;2023-04-12T08:59:12;3.95;;;1.17;;
48052;SDS011;33824;51.600;5.718;2023-04-12T09:01:41;8.07;;;1.50;;
48052;SDS011;33824;51.600;5.718;2023-04-12T09:04:07;9.60;;;2.28;;
48052;SDS011;33824;51.600;5.718;2023-04-12T09:06:33;9.82;;;1.50;;
48052;SDS011;33824;51.600;5.718;2023-04-12T09:08:58;9.88;;;1.50;;
48052;SDS011;33824;51.600;5.718;2023-04-12T09:11:26;9.20;;;1.45;;
48052;SDS011;33824;51.600;5.718;2023-04-12T09:13:53;10.93;;;1.98;;
48052;SDS011;33824;51.600;5.718;2023-04-12T09:16:35;5.03;;;1.48;;
48052;SDS011;33824;51.600;5.718;2023-04-12T09:19:02;6.15;;;1.40;;
48052;SDS011;33824;51.600;5.718;2023-04-12T09:21:28;4.40;;;1.30;;
48052;SDS011;33824;51.600;5.718;2023-04-12T09:24:01;5.68;;;1.65;;
48052;SDS011;33824;51.600;5.718;2023-04-12T09:26:37;6.00;;;1.95;;
48052;SDS011;33824;51.600;5.718;2023-04-12T09:29:03;7.13;;;1.90;;
48052;SDS011;33824;51.600;5.718;2023-04-12T09:31:29;5.97;;;1.83;;
48052;SDS011;33824;51.600;5.718;2023-04-12T09:34:07;7.47;;;1.60;;
48052;SDS011;33824;51.600;5.718;2023-04-12T09:36:39;10.98;;;1.92;;
48052;SDS011;33824;51.600;5.718;2023-04-12T09:39:05;11.48;;;2.30;;
48052;SDS011;33824;51.600;5.718;2023-04-12T09:41:32;11.80;;;2.13;;
48052;SDS011;33824;51.600;5.718;2023-04-12T09:43:58;18.10;;;2.85;;
48052;SDS011;33824;51.600;5.718;2023-04-12T09:46:24;15.13;;;2.65;;
48052;SDS011;33824;51.600;5.718;2023-04-12T09:48:50;13.10;;;1.92;;
48052;SDS011;33824;51.600;5.718;2023-04-12T09:53:54;14.57;;;2.65;;
48052;SDS011;33824;51.600;5.718;2023-04-12T09:56:23;18.90;;;3.65;;
48052;SDS011;33824;51.600;5.718;2023-04-12T09:58:59;19.10;;;3.13;;
48052;SDS011;33824;51.600;5.718;2023-04-12T10:01:28;16.08;;;3.15;;
48052;SDS011;33824;51.600;5.718;2023-04-12T10:03:54;11.20;;;2.45;;
48052;SDS011;33824;51.600;5.718;2023-04-12T10:06:23;25.60;;;3.10;;
48052;SDS011;33824;51.600;5.718;2023-04-12T10:08:50;12.10;;;2.85;;
48052;SDS011;33824;51.600;5.718;2023-04-12T10:11:16;12.23;;;2.55;;
48052;SDS011;33824;51.600;5.718;2023-04-12T10:13:42;20.13;;;3.58;;
48052;SDS011;33824;51.600;5.718;2023-04-12T10:16:08;15.20;;;2.70;;
48052;SDS011;33824;51.600;5.718;2023-04-12T10:18:36;21.10;;;3.30;;
48052;SDS011;33824;51.600;5.718;2023-04-12T10:21:03;17.00;;;3.60;;
48052;SDS011;33824;51.600;5.718;2023-04-12T10:23:30;12.27;;;3.17;;
48052;SDS011;33824;51.600;5.718;2023-04-12T10:25:57;11.00;;;3.10;;
48052;SDS011;33824;51.600;5.718;2023-04-12T10:28:26;9.02;;;3.05;;
48052;SDS011;33824;51.600;5.718;2023-04-12T10:30:55;9.15;;;2.63;;
48052;SDS011;33824;51.600;5.718;2023-04-12T10:33:24;20.73;;;3.50;;
48052;SDS011;33824;51.600;5.718;2023-04-12T10:35:58;11.27;;;3.65;;
48052;SDS011;33824;51.600;5.718;2023-04-12T10:38:27;15.73;;;3.20;;
48052;SDS011;33824;51.600;5.718;2023-04-12T10:41:09;14.82;;;3.08;;
48052;SDS011;33824;51.600;5.718;2023-04-12T10:43:37;12.80;;;4.22;;
48052;SDS011;33824;51.600;5.718;2023-04-12T10:46:04;43.38;;;5.53;;
48052;SDS011;33824;51.600;5.718;2023-04-12T10:48:34;21.73;;;4.22;;
48052;SDS011;33824;51.600;5.718;2023-04-12T10:51:10;12.35;;;3.03;;
48052;SDS011;33824;51.600;5.718;2023-04-12T10:53:37;16.08;;;3.15;;
48052;SDS011;33824;51.600;5.718;2023-04-12T10:56:33;14.75;;;2.90;;
48052;SDS011;33824;51.600;5.718;2023-04-12T10:58:59;21.88;;;3.30;;
48052;SDS011;33824;51.600;5.718;2023-04-12T11:01:26;15.68;;;3.42;;
48052;SDS011;33824;51.600;5.718;2023-04-12T11:09:36;20.08;;;3.28;;
48052;SDS011;33824;51.600;5.718;2023-04-12T11:14:35;22.70;;;2.80;;
48052;SDS011;33824;51.600;5.718;2023-04-12T11:19:36;17.08;;;2.40;;
48052;SDS011;33824;51.600;5.718;2023-04-12T11:22:03;18.88;;;3.35;;
48052;SDS011;33824;51.600;5.718;2023-04-12T11:24:29;17.80;;;3.08;;
48052;SDS011;33824;51.600;5.718;2023-04-12T11:26:58;20.38;;;3.28;;
48052;SDS011;33824;51.600;5.718;2023-04-12T11:29:24;18.42;;;2.80;;
48052;SDS011;33824;51.600;5.718;2023-04-12T11:31:50;17.35;;;2.13;;
48052;SDS011;33824;51.600;5.718;2023-04-12T11:34:16;17.08;;;4.93;;
48052;SDS011;33824;51.600;5.718;2023-04-12T11:36:46;15.00;;;2.90;;
48052;SDS011;33824;51.600;5.718;2023-04-12T11:39:12;22.00;;;2.95;;
48052;SDS011;33824;51.600;5.718;2023-04-12T11:41:45;21.15;;;2.58;;
48052;SDS011;33824;51.600;5.718;2023-04-12T11:44:13;17.17;;;3.15;;
48052;SDS011;33824;51.600;5.718;2023-04-12T11:46:44;13.38;;;2.58;;
48052;SDS011;33824;51.600;5.718;2023-04-12T11:49:13;16.10;;;3.00;;
48052;SDS011;33824;51.600;5.718;2023-04-12T11:51:46;16.20;;;3.90;;
48052;SDS011;33824;51.600;5.718;2023-04-12T11:54:11;12.93;;;3.33;;
48052;SDS011;33824;51.600;5.718;2023-04-12T11:56:38;14.25;;;3.10;;
48052;SDS011;33824;51.600;5.718;2023-04-12T11:59:04;16.13;;;3.90;;
48052;SDS011;33824;51.600;5.718;2023-04-12T12:01:31;15.30;;;3.80;;
48052;SDS011;33824;51.600;5.718;2023-04-12T12:03:58;18.55;;;4.30;;
48052;SDS011;33824;51.600;5.718;2023-04-12T12:06:25;9.90;;;3.10;;
48052;SDS011;33824;51.600;5.718;2023-04-12T12:08:51;16.60;;;4.35;;
48052;SDS011;33824;51.600;5.718;2023-04-12T12:11:18;19.00;;;4.03;;
48052;SDS011;33824;51.600;5.718;2023-04-12T12:13:49;12.48;;;3.33;;
48052;SDS011;33824;51.600;5.718;2023-04-12T12:16:16;12.40;;;3.17;;
48052;SDS011;33824;51.600;5.718;2023-04-12T12:18:43;17.70;;;4.43;;
48052;SDS011;33824;51.600;5.718;2023-04-12T12:21:13;14.23;;;3.72;;
48052;SDS011;33824;51.600;5.718;2023-04-12T12:23:43;15.50;;;3.83;;
48052;SDS011;33824;51.600;5.718;2023-04-12T12:26:17;15.95;;;3.15;;
48052;SDS011;33824;51.600;5.718;2023-04-12T12:28:51;12.45;;;2.80;;
48052;SDS011;33824;51.600;5.718;2023-04-12T12:31:18;8.50;;;2.30;;
48052;SDS011;33824;51.600;5.718;2023-04-12T12:33:45;16.73;;;2.72;;
48052;SDS011;33824;51.600;5.718;2023-04-12T12:36:11;13.60;;;2.78;;
48052;SDS011;33824;51.600;5.718;2023-04-12T12:38:38;13.85;;;3.05;;
48052;SDS011;33824;51.600;5.718;2023-04-12T12:41:18;17.75;;;2.53;;
48052;SDS011;33824;51.600;5.718;2023-04-12T12:43:48;17.38;;;3.00;;
48052;SDS011;33824;51.600;5.718;2023-04-12T12:46:15;22.23;;;3.83;;
48052;SDS011;33824;51.600;5.718;2023-04-12T12:48:42;12.73;;;2.17;;
48052;SDS011;33824;51.600;5.718;2023-04-12T12:51:09;19.25;;;2.17;;
48052;SDS011;33824;51.600;5.718;2023-04-12T12:53:36;18.00;;;4.00;;
48052;SDS011;33824;51.600;5.718;2023-04-12T12:56:06;13.05;;;2.60;;
48052;SDS011;33824;51.600;5.718;2023-04-12T12:58:33;14.48;;;2.55;;
48052;SDS011;33824;51.600;5.718;2023-04-12T13:00:59;13.30;;;2.92;;
48052;SDS011;33824;51.600;5.718;2023-04-12T13:03:25;7.80;;;1.80;;
48052;SDS011;33824;51.600;5.718;2023-04-12T13:05:50;11.73;;;2.22;;
48052;SDS011;33824;51.600;5.718;2023-04-12T13:08:16;5.93;;;1.65;;
48052;SDS011;33824;51.600;5.718;2023-04-12T13:10:42;13.57;;;2.53;;
48052;SDS011;33824;51.600;5.718;2023-04-12T13:13:08;17.38;;;2.67;;
48052;SDS011;33824;51.600;5.718;2023-04-12T13:15:34;8.73;;;2.35;;
48052;SDS011;33824;51.600;5.718;2023-04-12T13:18:00;15.68;;;2.72;;
48052;SDS011;33824;51.600;5.718;2023-04-12T13:20:26;9.90;;;1.90;;
48052;SDS011;33824;51.600;5.718;2023-04-12T13:22:52;17.25;;;2.40;;
48052;SDS011;33824;51.600;5.718;2023-04-12T13:25:17;11.50;;;2.40;;
48052;SDS011;33824;51.600;5.718;2023-04-12T13:27:44;13.90;;;2.10;;
48052;SDS011;33824;51.600;5.718;2023-04-12T13:30:10;19.45;;;3.22;;
48052;SDS011;33824;51.600;5.718;2023-04-12T13:32:35;15.18;;;2.55;;
48052;SDS011;33824;51.600;5.718;2023-04-12T13:35:01;8.65;;;1.70;;
48052;SDS011;33824;51.600;5.718;2023-04-12T13:37:27;15.50;;;2.10;;
48052;SDS011;33824;51.600;5.718;2023-04-12T13:39:53;12.60;;;2.45;;
48052;SDS011;33824;51.600;5.718;2023-04-12T13:42:18;9.63;;;2.60;;
48052;SDS011;33824;51.600;5.718;2023-04-12T13:44:44;9.63;;;2.28;;
48052;SDS011;33824;51.600;5.718;2023-04-12T13:47:10;9.45;;;2.45;;
48052;SDS011;33824;51.600;5.718;2023-04-12T13:49:36;10.93;;;2.20;;
48052;SDS011;33824;51.600;5.718;2023-04-12T13:52:01;13.35;;;2.72;;
48052;SDS011;33824;51.600;5.718;2023-04-12T13:54:27;8.48;;;2.35;;
48052;SDS011;33824;51.600;5.718;2023-04-12T13:56:54;6.28;;;1.30;;
48052;SDS011;33824;51.600;5.718;2023-04-12T13:59:21;5.53;;;1.52;;
48052;SDS011;33824;51.600;5.718;2023-04-12T14:01:47;9.38;;;1.38;;
48052;SDS011;33824;51.600;5.718;2023-04-12T14:04:12;6.35;;;1.00;;
48052;SDS011;33824;51.600;5.718;2023-04-12T14:06:38;3.90;;;1.10;;
48052;SDS011;33824;51.600;5.718;2023-04-12T14:09:04;8.02;;;1.33;;
48052;SDS011;33824;51.600;5.718;2023-04-12T14:11:29;30.48;;;12.85;;
48052;SDS011;33824;51.600;5.718;2023-04-12T14:13:55;7.38;;;2.75;;
48052;SDS011;33824;51.600;5.718;2023-04-12T14:16:20;6.70;;;1.30;;
48052;SDS011;33824;51.600;5.718;2023-04-12T14:18:46;2.22;;;1.05;;
48052;SDS011;33824;51.600;5.718;2023-04-12T14:21:12;2.38;;;0.80;;
48052;SDS011;33824;51.600;5.718;2023-04-12T14:23:37;3.38;;;1.30;;
48052;SDS011;33824;51.600;5.718;2023-04-12T14:26:04;3.63;;;0.95;;
48052;SDS011;33824;51.600;5.718;2023-04-12T14:28:30;1.50;;;0.70;;
48052;SDS011;33824;51.600;5.718;2023-04-12T14:30:56;3.42;;;0.65;;
48052;SDS011;33824;51.600;5.718;2023-04-12T14:33:22;5.82;;;1.02;;
48052;SDS011;33824;51.600;5.718;2023-04-12T14:35:49;3.35;;;1.05;;
48052;SDS011;33824;51.600;5.718;2023-04-12T14:38:15;1.73;;;0.50;;
48052;SDS011;33824;51.600;5.718;2023-04-12T14:40:40;3.30;;;1.25;;
48052;SDS011;33824;51.600;5.718;2023-04-12T14:43:06;4.25;;;0.85;;
48052;SDS011;33824;51.600;5.718;2023-04-12T14:45:31;4.43;;;0.73;;
48052;SDS011;33824;51.600;5.718;2023-04-12T14:47:57;6.18;;;0.90;;
48052;SDS011;33824;51.600;5.718;2023-04-12T14:50:23;5.15;;;0.70;;
48052;SDS011;33824;51.600;5.718;2023-04-12T14:52:48;4.72;;;1.13;;
48052;SDS011;33824;51.600;5.718;2023-04-12T14:55:14;3.65;;;0.90;;
48052;SDS011;33824;51.600;5.718;2023-04-12T14:57:43;3.08;;;0.70;;
48052;SDS011;33824;51.600;5.718;2023-04-12T15:00:09;2.97;;;0.80;;
48052;SDS011;33824;51.600;5.718;2023-04-12T15:02:40;1.33;;;0.50;;
48052;SDS011;33824;51.600;5.718;2023-04-12T15:05:08;1.77;;;0.40;;